sensor_id;sensor_type;location;lat;lon;timestamp;temperature;humidity
7476;DHT22;3779;49.216;8.650;2022-07-29T00:02:22;27.40;47.80
7476;DHT22;3779;49.216;8.650;2022-07-29T00:05:09;27.40;47.80
7476;DHT22;3779;49.216;8.650;2022-07-29T00:07:55;27.40;48.50
7476;DHT22;3779;49.216;8.650;2022-07-29T00:10:42;27.40;47.80
7476;DHT22;3779;49.216;8.650;2022-07-29T00:13:28;27.70;48.00
7476;DHT22;3779;49.216;8.650;2022-07-29T00:16:13;27.40;48.00
7476;DHT22;3779;49.216;8.650;2022-07-29T00:18:59;27.40;48.00
7476;DHT22;3779;49.216;8.650;2022-07-29T00:21:45;27.40;48.10
7476;DHT22;3779;49.216;8.650;2022-07-29T00:24:31;27.40;48.00
7476;DHT22;3779;49.216;8.650;2022-07-29T00:27:17;27.40;48.10
7476;DHT22;3779;49.216;8.650;2022-07-29T00:30:04;27.40;48.10
7476;DHT22;3779;49.216;8.650;2022-07-29T00:32:51;27.40;48.20
7476;DHT22;3779;49.216;8.650;2022-07-29T00:35:36;27.40;48.20
7476;DHT22;3779;49.216;8.650;2022-07-29T00:38:31;27.40;48.40
7476;DHT22;3779;49.216;8.650;2022-07-29T00:41:18;27.40;48.40
7476;DHT22;3779;49.216;8.650;2022-07-29T00:44:04;27.40;48.40
7476;DHT22;3779;49.216;8.650;2022-07-29T00:46:50;27.40;48.40
7476;DHT22;3779;49.216;8.650;2022-07-29T00:49:36;27.40;48.50
7476;DHT22;3779;49.216;8.650;2022-07-29T00:52:22;27.40;48.50
7476;DHT22;3779;49.216;8.650;2022-07-29T00:55:10;27.40;48.60
7476;DHT22;3779;49.216;8.650;2022-07-29T00:57:57;27.30;49.20
7476;DHT22;3779;49.216;8.650;2022-07-29T01:00:43;27.40;48.70
7476;DHT22;3779;49.216;8.650;2022-07-29T01:03:29;27.40;48.40
7476;DHT22;3779;49.216;8.650;2022-07-29T01:06:16;27.40;48.50
7476;DHT22;3779;49.216;8.650;2022-07-29T01:09:02;27.40;48.50
7476;DHT22;3779;49.216;8.650;2022-07-29T01:11:49;27.50;48.70
7476;DHT22;3779;49.216;8.650;2022-07-29T01:14:36;27.40;48.60
7476;DHT22;3779;49.216;8.650;2022-07-29T01:17:36;27.40;48.70
7476;DHT22;3779;49.216;8.650;2022-07-29T01:20:31;27.40;48.70
7476;DHT22;3779;49.216;8.650;2022-07-29T01:29:38;27.50;48.80
7476;DHT22;3779;49.216;8.650;2022-07-29T01:32:34;27.50;48.70
7476;DHT22;3779;49.216;8.650;2022-07-29T01:35:25;27.50;48.90
7476;DHT22;3779;49.216;8.650;2022-07-29T01:38:21;27.50;48.70
7476;DHT22;3779;49.216;8.650;2022-07-29T01:41:10;27.50;49.00
7476;DHT22;3779;49.216;8.650;2022-07-29T01:44:16;27.60;48.90
7476;DHT22;3779;49.216;8.650;2022-07-29T01:47:17;27.50;49.50
7476;DHT22;3779;49.216;8.650;2022-07-29T01:50:08;27.50;48.90
7476;DHT22;3779;49.216;8.650;2022-07-29T01:53:00;27.50;49.20
7476;DHT22;3779;49.216;8.650;2022-07-29T01:55:48;27.50;48.90
7476;DHT22;3779;49.216;8.650;2022-07-29T01:58:41;27.40;49.10
7476;DHT22;3779;49.216;8.650;2022-07-29T02:01:27;27.50;49.00
7476;DHT22;3779;49.216;8.650;2022-07-29T02:04:15;27.50;49.20
7476;DHT22;3779;49.216;8.650;2022-07-29T02:07:05;27.50;49.10
7476;DHT22;3779;49.216;8.650;2022-07-29T02:09:53;27.50;49.10
7476;DHT22;3779;49.216;8.650;2022-07-29T02:12:42;27.50;49.20
7476;DHT22;3779;49.216;8.650;2022-07-29T02:15:30;27.50;49.20
7476;DHT22;3779;49.216;8.650;2022-07-29T02:18:18;27.50;49.30
7476;DHT22;3779;49.216;8.650;2022-07-29T02:21:05;27.60;49.10
7476;DHT22;3779;49.216;8.650;2022-07-29T02:23:52;27.50;49.20
7476;DHT22;3779;49.216;8.650;2022-07-29T02:26:40;27.50;49.20
7476;DHT22;3779;49.216;8.650;2022-07-29T02:29:28;27.50;49.40
7476;DHT22;3779;49.216;8.650;2022-07-29T02:32:16;27.50;49.30
7476;DHT22;3779;49.216;8.650;2022-07-29T02:35:03;27.50;49.30
7476;DHT22;3779;49.216;8.650;2022-07-29T02:37:50;27.50;49.40
7476;DHT22;3779;49.216;8.650;2022-07-29T02:41:04;27.50;49.50
7476;DHT22;3779;49.216;8.650;2022-07-29T02:43:55;27.50;49.50
7476;DHT22;3779;49.216;8.650;2022-07-29T02:47:44;27.40;49.50
7476;DHT22;3779;49.216;8.650;2022-07-29T02:50:44;27.40;49.50
7476;DHT22;3779;49.216;8.650;2022-07-29T02:53:32;27.40;49.50
7476;DHT22;3779;49.216;8.650;2022-07-29T02:56:23;27.40;49.50
7476;DHT22;3779;49.216;8.650;2022-07-29T02:59:11;27.40;49.70
7476;DHT22;3779;49.216;8.650;2022-07-29T03:01:59;27.40;49.70
7476;DHT22;3779;49.216;8.650;2022-07-29T03:04:46;27.40;49.70
7476;DHT22;3779;49.216;8.650;2022-07-29T03:07:35;27.40;49.70
7476;DHT22;3779;49.216;8.650;2022-07-29T03:10:21;27.40;49.80
7476;DHT22;3779;49.216;8.650;2022-07-29T03:13:09;27.40;50.40
7476;DHT22;3779;49.216;8.650;2022-07-29T03:15:56;27.50;49.80
7476;DHT22;3779;49.216;8.650;2022-07-29T03:18:43;27.40;49.70
7476;DHT22;3779;49.216;8.650;2022-07-29T03:21:29;27.40;49.70
7476;DHT22;3779;49.216;8.650;2022-07-29T03:24:32;27.40;49.70
7476;DHT22;3779;49.216;8.650;2022-07-29T03:27:18;27.50;49.80
7476;DHT22;3779;49.216;8.650;2022-07-29T03:30:05;27.50;49.70
7476;DHT22;3779;49.216;8.650;2022-07-29T03:32:52;27.40;49.80
7476;DHT22;3779;49.216;8.650;2022-07-29T03:35:38;27.40;49.80
7476;DHT22;3779;49.216;8.650;2022-07-29T03:38:27;27.40;49.90
7476;DHT22;3779;49.216;8.650;2022-07-29T03:41:15;27.40;50.00
7476;DHT22;3779;49.216;8.650;2022-07-29T03:44:02;27.40;49.90
7476;DHT22;3779;49.216;8.650;2022-07-29T03:46:49;27.40;49.90
7476;DHT22;3779;49.216;8.650;2022-07-29T03:49:36;27.40;49.90
7476;DHT22;3779;49.216;8.650;2022-07-29T03:52:23;27.50;49.90
7476;DHT22;3779;49.216;8.650;2022-07-29T03:55:09;27.40;49.90
7476;DHT22;3779;49.216;8.650;2022-07-29T03:57:55;27.40;50.00
7476;DHT22;3779;49.216;8.650;2022-07-29T04:00:42;27.40;50.00
7476;DHT22;3779;49.216;8.650;2022-07-29T04:03:29;27.40;50.00
7476;DHT22;3779;49.216;8.650;2022-07-29T04:06:15;27.40;50.00
7476;DHT22;3779;49.216;8.650;2022-07-29T04:09:03;27.40;50.00
7476;DHT22;3779;49.216;8.650;2022-07-29T04:11:50;27.40;50.00
7476;DHT22;3779;49.216;8.650;2022-07-29T04:14:36;27.50;50.00
7476;DHT22;3779;49.216;8.650;2022-07-29T04:17:22;27.50;49.90
7476;DHT22;3779;49.216;8.650;2022-07-29T04:20:08;27.50;49.90
7476;DHT22;3779;49.216;8.650;2022-07-29T04:22:54;27.50;50.00
7476;DHT22;3779;49.216;8.650;2022-07-29T04:25:41;27.50;50.00
7476;DHT22;3779;49.216;8.650;2022-07-29T04:28:27;27.40;50.00
7476;DHT22;3779;49.216;8.650;2022-07-29T04:31:13;27.40;50.00
7476;DHT22;3779;49.216;8.650;2022-07-29T04:33:59;27.50;50.00
7476;DHT22;3779;49.216;8.650;2022-07-29T04:36:45;27.40;50.00
7476;DHT22;3779;49.216;8.650;2022-07-29T04:39:31;27.40;50.00
7476;DHT22;3779;49.216;8.650;2022-07-29T04:42:16;27.40;50.10
7476;DHT22;3779;49.216;8.650;2022-07-29T04:45:02;27.40;50.10
7476;DHT22;3779;49.216;8.650;2022-07-29T04:47:49;27.40;50.10
7476;DHT22;3779;49.216;8.650;2022-07-29T04:50:38;27.40;50.20
7476;DHT22;3779;49.216;8.650;2022-07-29T04:53:25;27.40;50.30
7476;DHT22;3779;49.216;8.650;2022-07-29T04:56:11;27.40;50.40
7476;DHT22;3779;49.216;8.650;2022-07-29T04:58:57;27.40;50.30
7476;DHT22;3779;49.216;8.650;2022-07-29T05:01:43;27.40;50.40
7476;DHT22;3779;49.216;8.650;2022-07-29T05:04:29;27.40;50.50
7476;DHT22;3779;49.216;8.650;2022-07-29T05:07:15;27.40;50.40
7476;DHT22;3779;49.216;8.650;2022-07-29T05:10:01;27.40;50.50
7476;DHT22;3779;49.216;8.650;2022-07-29T05:12:46;27.30;51.10
7476;DHT22;3779;49.216;8.650;2022-07-29T05:15:35;27.40;50.40
7476;DHT22;3779;49.216;8.650;2022-07-29T05:18:20;27.40;50.50
7476;DHT22;3779;49.216;8.650;2022-07-29T05:21:06;27.40;50.50
7476;DHT22;3779;49.216;8.650;2022-07-29T05:23:52;27.40;50.60
7476;DHT22;3779;49.216;8.650;2022-07-29T05:26:38;27.30;50.60
7476;DHT22;3779;49.216;8.650;2022-07-29T05:29:24;27.30;50.70
7476;DHT22;3779;49.216;8.650;2022-07-29T05:32:10;27.30;50.80
7476;DHT22;3779;49.216;8.650;2022-07-29T05:34:56;27.30;50.80
7476;DHT22;3779;49.216;8.650;2022-07-29T05:37:41;27.30;50.70
7476;DHT22;3779;49.216;8.650;2022-07-29T05:40:27;27.30;50.80
7476;DHT22;3779;49.216;8.650;2022-07-29T05:43:13;27.30;50.80
7476;DHT22;3779;49.216;8.650;2022-07-29T05:45:59;27.30;50.80
7476;DHT22;3779;49.216;8.650;2022-07-29T05:48:45;27.30;50.80
7476;DHT22;3779;49.216;8.650;2022-07-29T05:51:34;27.30;51.00
7476;DHT22;3779;49.216;8.650;2022-07-29T05:54:20;27.20;51.70
7476;DHT22;3779;49.216;8.650;2022-07-29T05:57:17;27.30;51.10
7476;DHT22;3779;49.216;8.650;2022-07-29T06:00:03;27.20;51.00
7476;DHT22;3779;49.216;8.650;2022-07-29T06:02:58;27.20;51.10
7476;DHT22;3779;49.216;8.650;2022-07-29T06:05:43;27.30;51.20
7476;DHT22;3779;49.216;8.650;2022-07-29T06:08:30;27.30;51.10
7476;DHT22;3779;49.216;8.650;2022-07-29T06:11:15;27.20;51.20
7476;DHT22;3779;49.216;8.650;2022-07-29T06:14:02;27.30;51.10
7476;DHT22;3779;49.216;8.650;2022-07-29T06:16:48;27.30;51.20
7476;DHT22;3779;49.216;8.650;2022-07-29T06:19:35;27.30;50.90
7476;DHT22;3779;49.216;8.650;2022-07-29T06:22:21;27.30;51.10
7476;DHT22;3779;49.216;8.650;2022-07-29T06:25:07;27.30;51.10
7476;DHT22;3779;49.216;8.650;2022-07-29T06:27:53;27.30;51.00
7476;DHT22;3779;49.216;8.650;2022-07-29T06:30:39;27.30;50.90
7476;DHT22;3779;49.216;8.650;2022-07-29T06:33:25;27.30;51.00
7476;DHT22;3779;49.216;8.650;2022-07-29T06:36:11;27.30;51.10
7476;DHT22;3779;49.216;8.650;2022-07-29T06:38:57;27.30;51.00
7476;DHT22;3779;49.216;8.650;2022-07-29T06:41:47;27.30;51.10
7476;DHT22;3779;49.216;8.650;2022-07-29T06:44:33;27.30;51.20
7476;DHT22;3779;49.216;8.650;2022-07-29T06:47:19;27.30;51.10
7476;DHT22;3779;49.216;8.650;2022-07-29T06:50:05;27.30;51.20
7476;DHT22;3779;49.216;8.650;2022-07-29T06:52:52;27.20;51.30
7476;DHT22;3779;49.216;8.650;2022-07-29T06:55:37;27.30;51.30
7476;DHT22;3779;49.216;8.650;2022-07-29T06:58:23;27.20;51.30
7476;DHT22;3779;49.216;8.650;2022-07-29T07:01:14;27.20;51.20
7476;DHT22;3779;49.216;8.650;2022-07-29T07:04:00;27.30;51.20
7476;DHT22;3779;49.216;8.650;2022-07-29T07:06:45;27.30;51.10
7476;DHT22;3779;49.216;8.650;2022-07-29T07:09:31;27.30;51.10
7476;DHT22;3779;49.216;8.650;2022-07-29T07:12:17;27.30;51.10
7476;DHT22;3779;49.216;8.650;2022-07-29T07:15:04;27.30;51.80
7476;DHT22;3779;49.216;8.650;2022-07-29T07:17:50;27.30;51.20
7476;DHT22;3779;49.216;8.650;2022-07-29T07:20:37;27.30;51.20
7476;DHT22;3779;49.216;8.650;2022-07-29T07:23:23;27.30;51.20
7476;DHT22;3779;49.216;8.650;2022-07-29T07:26:09;27.30;51.20
7476;DHT22;3779;49.216;8.650;2022-07-29T07:28:56;27.30;51.30
7476;DHT22;3779;49.216;8.650;2022-07-29T07:31:42;27.30;51.20
7476;DHT22;3779;49.216;8.650;2022-07-29T07:34:28;27.30;51.20
7476;DHT22;3779;49.216;8.650;2022-07-29T07:37:15;27.30;51.20
7476;DHT22;3779;49.216;8.650;2022-07-29T07:40:01;27.30;51.20
7476;DHT22;3779;49.216;8.650;2022-07-29T07:42:47;27.30;51.40
7476;DHT22;3779;49.216;8.650;2022-07-29T07:45:33;27.20;51.40
7476;DHT22;3779;49.216;8.650;2022-07-29T07:48:19;27.20;51.50
7476;DHT22;3779;49.216;8.650;2022-07-29T07:51:06;27.20;51.70
7476;DHT22;3779;49.216;8.650;2022-07-29T07:53:52;27.20;51.80
7476;DHT22;3779;49.216;8.650;2022-07-29T07:56:38;27.10;51.90
7476;DHT22;3779;49.216;8.650;2022-07-29T07:59:24;27.10;51.90
7476;DHT22;3779;49.216;8.650;2022-07-29T08:02:10;27.10;52.00
7476;DHT22;3779;49.216;8.650;2022-07-29T08:04:56;27.10;51.90
7476;DHT22;3779;49.216;8.650;2022-07-29T08:07:45;27.10;51.90
7476;DHT22;3779;49.216;8.650;2022-07-29T08:10:32;27.20;51.90
7476;DHT22;3779;49.216;8.650;2022-07-29T08:13:37;27.20;51.90
7476;DHT22;3779;49.216;8.650;2022-07-29T08:16:24;27.20;51.90
7476;DHT22;3779;49.216;8.650;2022-07-29T08:19:10;27.20;52.00
7476;DHT22;3779;49.216;8.650;2022-07-29T08:21:56;27.10;51.90
7476;DHT22;3779;49.216;8.650;2022-07-29T08:24:42;27.10;52.00
7476;DHT22;3779;49.216;8.650;2022-07-29T08:27:28;27.10;51.90
7476;DHT22;3779;49.216;8.650;2022-07-29T08:30:16;27.10;52.00
7476;DHT22;3779;49.216;8.650;2022-07-29T08:33:02;27.10;52.00
7476;DHT22;3779;49.216;8.650;2022-07-29T08:35:48;27.20;52.00
7476;DHT22;3779;49.216;8.650;2022-07-29T08:38:35;27.20;52.10
7476;DHT22;3779;49.216;8.650;2022-07-29T08:41:22;27.10;52.00
7476;DHT22;3779;49.216;8.650;2022-07-29T08:44:09;27.10;52.10
7476;DHT22;3779;49.216;8.650;2022-07-29T08:46:54;27.10;52.00
7476;DHT22;3779;49.216;8.650;2022-07-29T08:49:40;27.20;52.00
7476;DHT22;3779;49.216;8.650;2022-07-29T08:52:27;27.20;52.00
7476;DHT22;3779;49.216;8.650;2022-07-29T08:55:15;27.20;52.10
7476;DHT22;3779;49.216;8.650;2022-07-29T08:58:02;27.10;52.10
7476;DHT22;3779;49.216;8.650;2022-07-29T09:00:52;27.10;52.20
7476;DHT22;3779;49.216;8.650;2022-07-29T09:03:40;27.10;52.20
7476;DHT22;3779;49.216;8.650;2022-07-29T09:06:30;27.10;52.30
7476;DHT22;3779;49.216;8.650;2022-07-29T09:09:18;27.00;52.40
7476;DHT22;3779;49.216;8.650;2022-07-29T09:12:04;27.00;52.50
7476;DHT22;3779;49.216;8.650;2022-07-29T09:14:51;27.00;52.70
7476;DHT22;3779;49.216;8.650;2022-07-29T09:17:45;27.00;52.70
7476;DHT22;3779;49.216;8.650;2022-07-29T09:20:31;27.00;52.70
7476;DHT22;3779;49.216;8.650;2022-07-29T09:23:35;27.00;52.60
7476;DHT22;3779;49.216;8.650;2022-07-29T09:26:28;27.00;52.50
7476;DHT22;3779;49.216;8.650;2022-07-29T09:29:20;27.00;52.50
7476;DHT22;3779;49.216;8.650;2022-07-29T09:32:09;27.00;52.50
7476;DHT22;3779;49.216;8.650;2022-07-29T09:35:17;27.00;52.60
7476;DHT22;3779;49.216;8.650;2022-07-29T09:38:11;27.00;52.40
7476;DHT22;3779;49.216;8.650;2022-07-29T09:40:59;27.10;52.40
7476;DHT22;3779;49.216;8.650;2022-07-29T09:43:58;27.00;52.60
7476;DHT22;3779;49.216;8.650;2022-07-29T09:46:59;26.90;52.70
7476;DHT22;3779;49.216;8.650;2022-07-29T09:49:55;26.90;53.40
7476;DHT22;3779;49.216;8.650;2022-07-29T09:52:51;26.90;52.90
7476;DHT22;3779;49.216;8.650;2022-07-29T09:55:51;26.90;52.90
7476;DHT22;3779;49.216;8.650;2022-07-29T09:58:37;26.90;52.80
7476;DHT22;3779;49.216;8.650;2022-07-29T10:01:29;26.90;52.70
7476;DHT22;3779;49.216;8.650;2022-07-29T10:04:15;26.90;52.60
7476;DHT22;3779;49.216;8.650;2022-07-29T10:07:02;26.90;52.60
7476;DHT22;3779;49.216;8.650;2022-07-29T10:09:55;27.00;52.60
7476;DHT22;3779;49.216;8.650;2022-07-29T10:13:10;27.00;52.60
7476;DHT22;3779;49.216;8.650;2022-07-29T10:15:56;27.00;52.50
7476;DHT22;3779;49.216;8.650;2022-07-29T10:18:42;27.10;52.50
7476;DHT22;3779;49.216;8.650;2022-07-29T10:21:32;27.00;53.00
7476;DHT22;3779;49.216;8.650;2022-07-29T10:24:19;27.00;52.40
7476;DHT22;3779;49.216;8.650;2022-07-29T10:27:08;27.00;52.40
7476;DHT22;3779;49.216;8.650;2022-07-29T10:29:54;27.10;52.40
7476;DHT22;3779;49.216;8.650;2022-07-29T10:38:55;27.10;52.30
7476;DHT22;3779;49.216;8.650;2022-07-29T10:45:03;27.20;52.20
7476;DHT22;3779;49.216;8.650;2022-07-29T10:48:03;27.20;52.10
7476;DHT22;3779;49.216;8.650;2022-07-29T10:50:57;27.20;52.10
7476;DHT22;3779;49.216;8.650;2022-07-29T10:56:33;27.20;52.20
7476;DHT22;3779;49.216;8.650;2022-07-29T11:05:19;27.10;52.10
7476;DHT22;3779;49.216;8.650;2022-07-29T11:14:05;27.10;52.10
7476;DHT22;3779;49.216;8.650;2022-07-29T11:17:02;27.10;52.00
7476;DHT22;3779;49.216;8.650;2022-07-29T11:19:49;27.10;52.10
7476;DHT22;3779;49.216;8.650;2022-07-29T11:22:36;27.10;52.10
7476;DHT22;3779;49.216;8.650;2022-07-29T11:25:22;27.00;52.10
7476;DHT22;3779;49.216;8.650;2022-07-29T11:28:13;27.10;52.20
7476;DHT22;3779;49.216;8.650;2022-07-29T11:31:01;27.10;52.00
7476;DHT22;3779;49.216;8.650;2022-07-29T11:33:47;27.10;52.00
7476;DHT22;3779;49.216;8.650;2022-07-29T11:36:33;27.10;51.90
7476;DHT22;3779;49.216;8.650;2022-07-29T11:39:26;27.00;51.90
7476;DHT22;3779;49.216;8.650;2022-07-29T11:45:15;27.00;52.00
7476;DHT22;3779;49.216;8.650;2022-07-29T11:48:03;27.00;51.90
7476;DHT22;3779;49.216;8.650;2022-07-29T11:50:51;27.10;51.80
7476;DHT22;3779;49.216;8.650;2022-07-29T11:53:38;27.20;51.80
7476;DHT22;3779;49.216;8.650;2022-07-29T11:56:26;27.10;51.70
7476;DHT22;3779;49.216;8.650;2022-07-29T11:59:15;27.10;51.60
7476;DHT22;3779;49.216;8.650;2022-07-29T12:02:01;27.10;51.70
7476;DHT22;3779;49.216;8.650;2022-07-29T12:04:56;27.10;51.70
7476;DHT22;3779;49.216;8.650;2022-07-29T12:07:43;27.10;51.80
7476;DHT22;3779;49.216;8.650;2022-07-29T12:10:32;27.10;51.60
7476;DHT22;3779;49.216;8.650;2022-07-29T12:13:20;27.10;51.50
7476;DHT22;3779;49.216;8.650;2022-07-29T12:16:06;27.20;51.40
7476;DHT22;3779;49.216;8.650;2022-07-29T12:18:56;27.20;51.50
7476;DHT22;3779;49.216;8.650;2022-07-29T12:21:51;27.10;51.50
7476;DHT22;3779;49.216;8.650;2022-07-29T12:24:44;27.10;51.50
7476;DHT22;3779;49.216;8.650;2022-07-29T12:27:30;27.00;52.30
7476;DHT22;3779;49.216;8.650;2022-07-29T12:30:16;27.10;51.50
7476;DHT22;3779;49.216;8.650;2022-07-29T12:33:22;27.20;51.30
7476;DHT22;3779;49.216;8.650;2022-07-29T12:36:13;27.20;51.40
7476;DHT22;3779;49.216;8.650;2022-07-29T12:38:59;27.20;51.20
7476;DHT22;3779;49.216;8.650;2022-07-29T12:41:45;27.20;51.10
7476;DHT22;3779;49.216;8.650;2022-07-29T12:44:50;27.20;51.20
7476;DHT22;3779;49.216;8.650;2022-07-29T12:47:51;27.20;51.30
7476;DHT22;3779;49.216;8.650;2022-07-29T12:50:56;27.20;51.20
7476;DHT22;3779;49.216;8.650;2022-07-29T12:54:09;27.30;51.10
7476;DHT22;3779;49.216;8.650;2022-07-29T12:56:59;27.20;51.20
7476;DHT22;3779;49.216;8.650;2022-07-29T13:02:55;27.20;51.30
7476;DHT22;3779;49.216;8.650;2022-07-29T13:05:44;27.20;51.30
7476;DHT22;3779;49.216;8.650;2022-07-29T13:08:30;27.20;51.10
7476;DHT22;3779;49.216;8.650;2022-07-29T13:14:32;27.30;51.10
7476;DHT22;3779;49.216;8.650;2022-07-29T13:17:20;27.30;51.10
7476;DHT22;3779;49.216;8.650;2022-07-29T13:20:10;27.30;51.00
7476;DHT22;3779;49.216;8.650;2022-07-29T13:23:00;27.30;51.00
7476;DHT22;3779;49.216;8.650;2022-07-29T13:25:46;27.30;50.90
7476;DHT22;3779;49.216;8.650;2022-07-29T13:28:32;27.30;50.90
7476;DHT22;3779;49.216;8.650;2022-07-29T13:31:18;27.30;50.70
7476;DHT22;3779;49.216;8.650;2022-07-29T13:34:03;27.30;50.90
7476;DHT22;3779;49.216;8.650;2022-07-29T13:36:49;27.30;50.80
7476;DHT22;3779;49.216;8.650;2022-07-29T13:39:35;27.30;50.80
7476;DHT22;3779;49.216;8.650;2022-07-29T13:42:23;27.30;50.70
7476;DHT22;3779;49.216;8.650;2022-07-29T13:45:09;27.30;50.50
7476;DHT22;3779;49.216;8.650;2022-07-29T13:47:56;27.30;50.70
7476;DHT22;3779;49.216;8.650;2022-07-29T13:50:42;27.40;50.50
7476;DHT22;3779;49.216;8.650;2022-07-29T13:53:28;27.40;50.40
7476;DHT22;3779;49.216;8.650;2022-07-29T13:56:14;27.40;50.40
7476;DHT22;3779;49.216;8.650;2022-07-29T13:59:00;27.40;50.40
7476;DHT22;3779;49.216;8.650;2022-07-29T14:01:45;27.40;50.30
7476;DHT22;3779;49.216;8.650;2022-07-29T14:04:32;27.40;50.30
7476;DHT22;3779;49.216;8.650;2022-07-29T14:07:19;27.30;50.30
7476;DHT22;3779;49.216;8.650;2022-07-29T14:10:05;27.30;50.40
7476;DHT22;3779;49.216;8.650;2022-07-29T14:12:51;27.30;50.70
7476;DHT22;3779;49.216;8.650;2022-07-29T14:15:37;27.20;50.60
7476;DHT22;3779;49.216;8.650;2022-07-29T14:18:23;27.30;50.50
7476;DHT22;3779;49.216;8.650;2022-07-29T14:21:09;27.30;50.50
7476;DHT22;3779;49.216;8.650;2022-07-29T14:23:55;27.30;50.60
7476;DHT22;3779;49.216;8.650;2022-07-29T14:26:41;27.30;50.60
7476;DHT22;3779;49.216;8.650;2022-07-29T14:29:27;27.30;50.60
7476;DHT22;3779;49.216;8.650;2022-07-29T14:32:12;27.30;50.60
7476;DHT22;3779;49.216;8.650;2022-07-29T14:35:00;27.30;50.50
7476;DHT22;3779;49.216;8.650;2022-07-29T14:37:46;27.30;50.60
7476;DHT22;3779;49.216;8.650;2022-07-29T14:40:31;27.30;50.50
7476;DHT22;3779;49.216;8.650;2022-07-29T14:43:17;27.30;50.50
7476;DHT22;3779;49.216;8.650;2022-07-29T14:46:03;27.20;50.50
7476;DHT22;3779;49.216;8.650;2022-07-29T14:48:49;27.30;50.40
7476;DHT22;3779;49.216;8.650;2022-07-29T14:51:35;27.30;50.40
7476;DHT22;3779;49.216;8.650;2022-07-29T14:54:21;27.30;50.40
7476;DHT22;3779;49.216;8.650;2022-07-29T14:57:07;27.30;50.30
7476;DHT22;3779;49.216;8.650;2022-07-29T14:59:53;27.30;50.00
7476;DHT22;3779;49.216;8.650;2022-07-29T15:02:38;27.40;49.80
7476;DHT22;3779;49.216;8.650;2022-07-29T15:05:25;27.40;49.60
7476;DHT22;3779;49.216;8.650;2022-07-29T15:08:11;27.50;49.80
7476;DHT22;3779;49.216;8.650;2022-07-29T15:10:57;27.50;49.70
7476;DHT22;3779;49.216;8.650;2022-07-29T15:13:44;27.40;49.70
7476;DHT22;3779;49.216;8.650;2022-07-29T15:16:30;27.40;49.70
7476;DHT22;3779;49.216;8.650;2022-07-29T15:19:16;27.40;49.70
7476;DHT22;3779;49.216;8.650;2022-07-29T15:22:03;27.40;49.60
7476;DHT22;3779;49.216;8.650;2022-07-29T15:24:50;27.40;49.80
7476;DHT22;3779;49.216;8.650;2022-07-29T15:27:35;27.40;49.70
7476;DHT22;3779;49.216;8.650;2022-07-29T15:30:21;27.40;49.70
7476;DHT22;3779;49.216;8.650;2022-07-29T15:33:08;27.40;49.80
7476;DHT22;3779;49.216;8.650;2022-07-29T15:35:56;27.40;49.70
7476;DHT22;3779;49.216;8.650;2022-07-29T15:38:41;27.40;49.50
7476;DHT22;3779;49.216;8.650;2022-07-29T15:41:29;27.40;49.70
7476;DHT22;3779;49.216;8.650;2022-07-29T15:44:15;27.30;49.70
7476;DHT22;3779;49.216;8.650;2022-07-29T15:47:01;27.30;49.70
7476;DHT22;3779;49.216;8.650;2022-07-29T15:49:52;27.50;49.90
7476;DHT22;3779;49.216;8.650;2022-07-29T15:52:39;27.40;49.70
7476;DHT22;3779;49.216;8.650;2022-07-29T15:55:25;27.40;49.70
7476;DHT22;3779;49.216;8.650;2022-07-29T15:58:11;27.50;49.90
7476;DHT22;3779;49.216;8.650;2022-07-29T16:00:57;27.40;49.70
7476;DHT22;3779;49.216;8.650;2022-07-29T16:03:43;27.30;49.60
7476;DHT22;3779;49.216;8.650;2022-07-29T16:06:29;27.30;49.60
7476;DHT22;3779;49.216;8.650;2022-07-29T16:09:15;27.40;49.50
7476;DHT22;3779;49.216;8.650;2022-07-29T16:12:02;27.40;49.40
7476;DHT22;3779;49.216;8.650;2022-07-29T16:14:48;27.40;49.40
7476;DHT22;3779;49.216;8.650;2022-07-29T16:17:35;27.40;49.00
7476;DHT22;3779;49.216;8.650;2022-07-29T16:20:21;27.50;49.00
7476;DHT22;3779;49.216;8.650;2022-07-29T16:23:07;27.50;49.00
7476;DHT22;3779;49.216;8.650;2022-07-29T16:25:56;27.50;49.00
7476;DHT22;3779;49.216;8.650;2022-07-29T16:28:42;27.50;49.00
7476;DHT22;3779;49.216;8.650;2022-07-29T16:31:28;27.50;48.90
7476;DHT22;3779;49.216;8.650;2022-07-29T16:34:14;27.50;49.30
7476;DHT22;3779;49.216;8.650;2022-07-29T16:37:02;27.50;48.80
7476;DHT22;3779;49.216;8.650;2022-07-29T16:39:48;27.50;48.90
7476;DHT22;3779;49.216;8.650;2022-07-29T16:42:34;27.50;48.70
7476;DHT22;3779;49.216;8.650;2022-07-29T16:45:20;27.50;48.60
7476;DHT22;3779;49.216;8.650;2022-07-29T16:48:06;27.50;48.60
7476;DHT22;3779;49.216;8.650;2022-07-29T16:50:52;27.50;48.70
7476;DHT22;3779;49.216;8.650;2022-07-29T16:53:37;27.50;48.50
7476;DHT22;3779;49.216;8.650;2022-07-29T16:56:23;27.50;48.60
7476;DHT22;3779;49.216;8.650;2022-07-29T16:59:09;27.60;48.60
7476;DHT22;3779;49.216;8.650;2022-07-29T17:01:55;27.50;48.50
7476;DHT22;3779;49.216;8.650;2022-07-29T17:04:41;27.50;48.50
7476;DHT22;3779;49.216;8.650;2022-07-29T17:07:27;27.50;48.50
7476;DHT22;3779;49.216;8.650;2022-07-29T17:10:13;27.50;48.40
7476;DHT22;3779;49.216;8.650;2022-07-29T17:12:59;27.50;48.50
7476;DHT22;3779;49.216;8.650;2022-07-29T17:15:45;27.50;48.50
7476;DHT22;3779;49.216;8.650;2022-07-29T17:18:31;27.50;48.40
7476;DHT22;3779;49.216;8.650;2022-07-29T17:21:17;27.50;48.30
7476;DHT22;3779;49.216;8.650;2022-07-29T17:24:03;27.50;48.40
7476;DHT22;3779;49.216;8.650;2022-07-29T17:26:49;27.50;48.50
7476;DHT22;3779;49.216;8.650;2022-07-29T17:29:35;27.50;48.60
7476;DHT22;3779;49.216;8.650;2022-07-29T17:32:21;27.40;48.50
7476;DHT22;3779;49.216;8.650;2022-07-29T17:35:08;27.50;48.50
7476;DHT22;3779;49.216;8.650;2022-07-29T17:38:13;27.50;48.40
7476;DHT22;3779;49.216;8.650;2022-07-29T17:40:59;27.50;48.10
7476;DHT22;3779;49.216;8.650;2022-07-29T17:43:45;27.50;48.20
7476;DHT22;3779;49.216;8.650;2022-07-29T17:46:31;27.50;48.30
7476;DHT22;3779;49.216;8.650;2022-07-29T17:49:17;27.50;48.10
7476;DHT22;3779;49.216;8.650;2022-07-29T17:52:03;27.50;47.90
7476;DHT22;3779;49.216;8.650;2022-07-29T17:54:48;27.60;47.90
7476;DHT22;3779;49.216;8.650;2022-07-29T17:57:34;27.50;48.00
7476;DHT22;3779;49.216;8.650;2022-07-29T18:00:20;27.50;48.00
7476;DHT22;3779;49.216;8.650;2022-07-29T18:03:07;27.50;47.90
7476;DHT22;3779;49.216;8.650;2022-07-29T18:05:53;27.50;47.80
7476;DHT22;3779;49.216;8.650;2022-07-29T18:08:39;27.60;47.70
7476;DHT22;3779;49.216;8.650;2022-07-29T18:11:25;27.60;47.80
7476;DHT22;3779;49.216;8.650;2022-07-29T18:14:12;27.60;47.80
7476;DHT22;3779;49.216;8.650;2022-07-29T18:16:57;27.50;48.40
7476;DHT22;3779;49.216;8.650;2022-07-29T18:19:43;27.60;47.80
7476;DHT22;3779;49.216;8.650;2022-07-29T18:22:29;27.50;47.60
7476;DHT22;3779;49.216;8.650;2022-07-29T18:25:15;27.50;47.80
7476;DHT22;3779;49.216;8.650;2022-07-29T18:28:01;27.50;47.60
7476;DHT22;3779;49.216;8.650;2022-07-29T18:30:47;27.60;47.90
7476;DHT22;3779;49.216;8.650;2022-07-29T18:33:33;27.60;47.90
7476;DHT22;3779;49.216;8.650;2022-07-29T18:36:19;27.60;47.90
7476;DHT22;3779;49.216;8.650;2022-07-29T18:39:05;27.60;47.90
7476;DHT22;3779;49.216;8.650;2022-07-29T18:41:51;27.60;48.00
7476;DHT22;3779;49.216;8.650;2022-07-29T18:44:37;27.60;48.10
7476;DHT22;3779;49.216;8.650;2022-07-29T18:47:23;27.60;48.10
7476;DHT22;3779;49.216;8.650;2022-07-29T18:50:09;27.60;47.90
7476;DHT22;3779;49.216;8.650;2022-07-29T18:52:56;27.60;48.00
7476;DHT22;3779;49.216;8.650;2022-07-29T18:55:42;27.60;47.90
7476;DHT22;3779;49.216;8.650;2022-07-29T18:58:28;27.60;48.00